DAL1142 KDEN-KBIL
Flight info
| Callsign | DAL1142 |
|---|---|
| Flight time | 1h 14m |
| Altitude | 36000 |
| Route | XXWNG1 XXWNG BGHRN BGHRN3 |
| Aircraft | A321/M-SDE3FGHIRWY/LB1 |
Departure
| Time | 2026-04-20 17:23 |
|---|---|
| Airport | Denver International Airport (KDEN) |
Arrival
| Time | 2026-04-20 18:37 |
|---|---|
| Airport | Billings Logan International Airport (KBIL) |
| Time | Latitude | Longitude | Altitude | Speed | Heading |
|---|---|---|---|---|---|
| 2026-04-20 16:44 | 39.85450 | -104.67070 | 5384 ft | 0 kts | 189° |
| 2026-04-20 17:05 | 39.85460 | -104.67068 | 5382 ft | 3 kts | 189° |
| 2026-04-20 17:05 | 39.85478 | -104.67064 | 5386 ft | 3 kts | 189° |
| 2026-04-20 17:05 | 39.85496 | -104.67060 | 5386 ft | 3 kts | 181° |
| 2026-04-20 17:06 | 39.85514 | -104.67064 | 5386 ft | 2 kts | 167° |
| 2026-04-20 17:06 | 39.85532 | -104.67070 | 5386 ft | 3 kts | 162° |
| 2026-04-20 17:06 | 39.85550 | -104.67070 | 5386 ft | 3 kts | 222° |
| 2026-04-20 17:06 | 39.85558 | -104.67056 | 5386 ft | 0 kts | 258° |
| 2026-04-20 17:08 | 39.85558 | -104.67058 | 5386 ft | 1 kts | 265° |
| 2026-04-20 17:08 | 39.85575 | -104.67048 | 5386 ft | 7 kts | 60° |
| 2026-04-20 17:08 | 39.85588 | -104.66891 | 5386 ft | 25 kts | 91° |
| 2026-04-20 17:09 | 39.85585 | -104.66667 | 5386 ft | 20 kts | 90° |
| 2026-04-20 17:09 | 39.85585 | -104.66501 | 5387 ft | 18 kts | 90° |
| 2026-04-20 17:09 | 39.85615 | -104.66376 | 5389 ft | 12 kts | 31° |
| 2026-04-20 17:09 | 39.85684 | -104.66355 | 5392 ft | 9 kts | 4° |
| 2026-04-20 17:10 | 39.85735 | -104.66351 | 5392 ft | 8 kts | 3° |
| 2026-04-20 17:10 | 39.85835 | -104.66346 | 5391 ft | 22 kts | 1° |
| 2026-04-20 17:10 | 39.86038 | -104.66350 | 5387 ft | 36 kts | 359° |
| 2026-04-20 17:10 | 39.86244 | -104.66353 | 5382 ft | 29 kts | 359° |
| 2026-04-20 17:11 | 39.86439 | -104.66348 | 5383 ft | 25 kts | 10° |
| 2026-04-20 17:11 | 39.86497 | -104.66184 | 5384 ft | 21 kts | 89° |
| 2026-04-20 17:11 | 39.86500 | -104.65980 | 5373 ft | 23 kts | 89° |
| 2026-04-20 17:11 | 39.86499 | -104.65767 | 5368 ft | 24 kts | 92° |
| 2026-04-20 17:12 | 39.86494 | -104.65543 | 5363 ft | 26 kts | 91° |
| 2026-04-20 17:12 | 39.86492 | -104.65309 | 5358 ft | 26 kts | 90° |
| 2026-04-20 17:12 | 39.86492 | -104.65184 | 5356 ft | 26 kts | 90° |
| 2026-04-20 17:20 | 39.86492 | -104.65082 | 5355 ft | 25 kts | 90° |
| 2026-04-20 17:20 | 39.86491 | -104.64854 | 5352 ft | 25 kts | 90° |
| 2026-04-20 17:20 | 39.86489 | -104.64627 | 5347 ft | 26 kts | 90° |
| 2026-04-20 17:20 | 39.86487 | -104.64388 | 5337 ft | 27 kts | 91° |
| 2026-04-20 17:21 | 39.86487 | -104.64300 | 5338 ft | 0 kts | 89° |
| 2026-04-20 17:21 | 39.86487 | -104.64297 | 5334 ft | 2 kts | 89° |
| 2026-04-20 17:21 | 39.86478 | -104.64165 | 5336 ft | 22 kts | 116° |
| 2026-04-20 17:22 | 39.86413 | -104.64127 | 5336 ft | 0 kts | 192° |
| 2026-04-20 17:22 | 39.86385 | -104.64131 | 5338 ft | 22 kts | 182° |
| 2026-04-20 17:22 | 39.85966 | -104.64138 | 5352 ft | 95 kts | 181° |
| 2026-04-20 17:23 | 39.85096 | -104.64149 | 5351 ft | 153 kts | 180° |
| 2026-04-20 17:23 | 39.83885 | -104.64175 | 5479 ft | 188 kts | 182° |
| 2026-04-20 17:23 | 39.82611 | -104.64230 | 6347 ft | 178 kts | 182° |
| 2026-04-20 17:23 | 39.81397 | -104.64257 | 7212 ft | 170 kts | 181° |
| 2026-04-20 17:24 | 39.80280 | -104.64306 | 7832 ft | 154 kts | 196° |
| 2026-04-20 17:24 | 39.79385 | -104.65122 | 7836 ft | 173 kts | 244° |
| 2026-04-20 17:24 | 39.79282 | -104.66637 | 8135 ft | 171 kts | 293° |
| 2026-04-20 17:24 | 39.80056 | -104.67719 | 8440 ft | 176 kts | 335° |
| 2026-04-20 17:25 | 39.81346 | -104.68090 | 8347 ft | 202 kts | 354° |
| 2026-04-20 17:25 | 39.82774 | -104.68330 | 8487 ft | 212 kts | 349° |
| 2026-04-20 17:25 | 39.84268 | -104.68677 | 8623 ft | 224 kts | 348° |
| 2026-04-20 17:25 | 39.85845 | -104.69048 | 8766 ft | 237 kts | 348° |
| 2026-04-20 17:26 | 39.87510 | -104.69411 | 8901 ft | 248 kts | 349° |
| 2026-04-20 17:26 | 39.87866 | -104.69485 | 8926 ft | 251 kts | 349° |
| 2026-04-20 17:26 | 39.88779 | -104.69696 | 9009 ft | 255 kts | 348° |
| 2026-04-20 17:27 | 39.90597 | -104.70071 | 9091 ft | 275 kts | 350° |
| 2026-04-20 17:27 | 39.92558 | -104.70421 | 9250 ft | 293 kts | 351° |
| 2026-04-20 17:27 | 39.94608 | -104.70762 | 9697 ft | 301 kts | 351° |
| 2026-04-20 17:27 | 39.96704 | -104.71101 | 10192 ft | 309 kts | 351° |
| 2026-04-20 17:28 | 39.98903 | -104.71461 | 10308 ft | 329 kts | 351° |
| 2026-04-20 17:28 | 40.01241 | -104.71844 | 10448 ft | 348 kts | 351° |
| 2026-04-20 17:28 | 40.03709 | -104.72253 | 10571 ft | 367 kts | 351° |
| 2026-04-20 17:28 | 40.06309 | -104.72691 | 10716 ft | 384 kts | 351° |
| 2026-04-20 17:29 | 40.08986 | -104.73144 | 11157 ft | 390 kts | 351° |
| 2026-04-20 17:29 | 40.11686 | -104.73598 | 11718 ft | 393 kts | 351° |
| 2026-04-20 17:29 | 40.14403 | -104.74056 | 12364 ft | 394 kts | 351° |
| 2026-04-20 17:29 | 40.17127 | -104.74520 | 12970 ft | 396 kts | 351° |
| 2026-04-20 17:30 | 40.19868 | -104.74986 | 13547 ft | 398 kts | 351° |
| 2026-04-20 17:30 | 40.22623 | -104.75454 | 14108 ft | 400 kts | 351° |
| 2026-04-20 17:30 | 40.25391 | -104.75925 | 14651 ft | 403 kts | 351° |
| 2026-04-20 17:30 | 40.28178 | -104.76399 | 15173 ft | 405 kts | 351° |
| 2026-04-20 17:31 | 40.30978 | -104.76875 | 15689 ft | 407 kts | 351° |
| 2026-04-20 17:31 | 40.33793 | -104.77356 | 16193 ft | 410 kts | 351° |
| 2026-04-20 17:31 | 40.36628 | -104.77840 | 16695 ft | 412 kts | 350° |
| 2026-04-20 17:31 | 40.39477 | -104.78324 | 17178 ft | 414 kts | 351° |
| 2026-04-20 17:32 | 40.42336 | -104.78811 | 17644 ft | 416 kts | 350° |
| 2026-04-20 17:32 | 40.45218 | -104.79303 | 18109 ft | 418 kts | 350° |
| 2026-04-20 17:32 | 40.48076 | -104.79793 | 18546 ft | 421 kts | 350° |
| 2026-04-20 17:32 | 40.50986 | -104.80293 | 18962 ft | 424 kts | 350° |
| 2026-04-20 17:33 | 40.53920 | -104.80796 | 19376 ft | 426 kts | 350° |
| 2026-04-20 17:33 | 40.56872 | -104.81303 | 19774 ft | 430 kts | 350° |
| 2026-04-20 17:33 | 40.59843 | -104.81816 | 20170 ft | 432 kts | 350° |
| 2026-04-20 17:33 | 40.62839 | -104.82334 | 20556 ft | 435 kts | 350° |
| 2026-04-20 17:34 | 40.65850 | -104.82852 | 20930 ft | 438 kts | 350° |
| 2026-04-20 17:34 | 40.68881 | -104.83369 | 21298 ft | 441 kts | 350° |
| 2026-04-20 17:34 | 40.71924 | -104.83889 | 21650 ft | 443 kts | 350° |
| 2026-04-20 17:34 | 40.74996 | -104.84421 | 22002 ft | 444 kts | 348° |
| 2026-04-20 17:35 | 40.78014 | -104.85321 | 22344 ft | 445 kts | 340° |
| 2026-04-20 17:35 | 40.80877 | -104.86836 | 22677 ft | 444 kts | 330° |
| 2026-04-20 17:35 | 40.83579 | -104.88817 | 23007 ft | 445 kts | 328° |
| 2026-04-20 17:35 | 40.86275 | -104.90847 | 23349 ft | 447 kts | 328° |
| 2026-04-20 17:36 | 40.88990 | -104.92888 | 23675 ft | 450 kts | 328° |
| 2026-04-20 17:36 | 40.91716 | -104.94931 | 24004 ft | 452 kts | 328° |
| 2026-04-20 17:36 | 40.94457 | -104.96983 | 24318 ft | 453 kts | 328° |
| 2026-04-20 17:36 | 40.97206 | -104.99042 | 24628 ft | 456 kts | 328° |
| 2026-04-20 17:37 | 40.99972 | -105.01111 | 24934 ft | 458 kts | 328° |
| 2026-04-20 17:37 | 41.01809 | -105.02486 | 25138 ft | 459 kts | 328° |
| 2026-04-20 17:37 | 41.04592 | -105.04577 | 25428 ft | 461 kts | 327° |
| 2026-04-20 17:37 | 41.07388 | -105.06685 | 25709 ft | 463 kts | 327° |
| 2026-04-20 17:38 | 41.10192 | -105.08800 | 26004 ft | 465 kts | 327° |
| 2026-04-20 17:38 | 41.13008 | -105.10923 | 26279 ft | 467 kts | 327° |
| 2026-04-20 17:38 | 41.15832 | -105.13053 | 26601 ft | 467 kts | 327° |
| 2026-04-20 17:38 | 41.18652 | -105.15181 | 26965 ft | 466 kts | 327° |
| 2026-04-20 17:39 | 41.21469 | -105.17311 | 27339 ft | 466 kts | 327° |
| 2026-04-20 17:39 | 41.24278 | -105.19437 | 27719 ft | 463 kts | 327° |
| 2026-04-20 17:39 | 41.27075 | -105.21556 | 28028 ft | 463 kts | 327° |
| 2026-04-20 17:39 | 41.29871 | -105.23675 | 28354 ft | 462 kts | 327° |
| 2026-04-20 17:40 | 41.32652 | -105.25797 | 28652 ft | 460 kts | 328° |
| 2026-04-20 17:40 | 41.35433 | -105.27916 | 28894 ft | 461 kts | 327° |
| 2026-04-20 17:40 | 41.38218 | -105.30029 | 29179 ft | 461 kts | 327° |
| 2026-04-20 17:40 | 41.41003 | -105.32146 | 29489 ft | 461 kts | 327° |
| 2026-04-20 17:41 | 41.43781 | -105.34263 | 29794 ft | 460 kts | 327° |
| 2026-04-20 17:41 | 41.46566 | -105.36363 | 30083 ft | 461 kts | 329° |
| 2026-04-20 17:41 | 41.49463 | -105.38086 | 30381 ft | 464 kts | 334° |
| 2026-04-20 17:41 | 41.52439 | -105.39719 | 30724 ft | 461 kts | 334° |
| 2026-04-20 17:42 | 41.55403 | -105.41356 | 31031 ft | 460 kts | 334° |
| 2026-04-20 17:42 | 41.58358 | -105.42995 | 31335 ft | 459 kts | 334° |
| 2026-04-20 17:42 | 41.61306 | -105.44637 | 31642 ft | 458 kts | 334° |
| 2026-04-20 17:42 | 41.64243 | -105.46280 | 31940 ft | 457 kts | 334° |
| 2026-04-20 17:43 | 41.67172 | -105.47920 | 32216 ft | 457 kts | 334° |
| 2026-04-20 17:43 | 41.70105 | -105.49555 | 32512 ft | 456 kts | 334° |
| 2026-04-20 17:43 | 41.73028 | -105.51180 | 32798 ft | 455 kts | 334° |
| 2026-04-20 17:43 | 41.75953 | -105.52806 | 33089 ft | 454 kts | 334° |
| 2026-04-20 17:44 | 41.78862 | -105.54426 | 33376 ft | 453 kts | 334° |
| 2026-04-20 17:44 | 41.81769 | -105.56047 | 33653 ft | 452 kts | 334° |
| 2026-04-20 17:44 | 41.84674 | -105.57670 | 33928 ft | 451 kts | 334° |
| 2026-04-20 17:44 | 41.87569 | -105.59289 | 34197 ft | 451 kts | 334° |
| 2026-04-20 17:45 | 41.90459 | -105.60907 | 34453 ft | 450 kts | 334° |
| 2026-04-20 17:45 | 41.93346 | -105.62530 | 34717 ft | 449 kts | 334° |
| 2026-04-20 17:45 | 41.96223 | -105.64151 | 34997 ft | 448 kts | 333° |
| 2026-04-20 17:45 | 41.99095 | -105.65774 | 35257 ft | 447 kts | 334° |
| 2026-04-20 17:46 | 42.01957 | -105.67389 | 35500 ft | 446 kts | 333° |
| 2026-04-20 17:46 | 42.04818 | -105.69003 | 35755 ft | 445 kts | 333° |
| 2026-04-20 17:46 | 42.07678 | -105.70615 | 36001 ft | 444 kts | 333° |
| 2026-04-20 17:46 | 42.10528 | -105.72220 | 36127 ft | 444 kts | 333° |
| 2026-04-20 17:47 | 42.13382 | -105.73828 | 36164 ft | 444 kts | 333° |
| 2026-04-20 17:47 | 42.19073 | -105.77047 | 36116 ft | 443 kts | 333° |
| 2026-04-20 17:48 | 42.24713 | -105.80248 | 36118 ft | 443 kts | 333° |
| 2026-04-20 17:48 | 42.30394 | -105.83475 | 36115 ft | 443 kts | 333° |
| 2026-04-20 17:49 | 42.36078 | -105.86701 | 36110 ft | 444 kts | 333° |
| 2026-04-20 17:49 | 42.41771 | -105.89946 | 36116 ft | 444 kts | 333° |
| 2026-04-20 17:50 | 42.47461 | -105.93204 | 36118 ft | 443 kts | 333° |
| 2026-04-20 17:50 | 42.53138 | -105.96460 | 36119 ft | 443 kts | 333° |
| 2026-04-20 17:51 | 42.58811 | -105.99705 | 36117 ft | 442 kts | 333° |
| 2026-04-20 17:51 | 42.64479 | -106.02959 | 36109 ft | 442 kts | 333° |
| 2026-04-20 17:52 | 42.70144 | -106.06236 | 36111 ft | 442 kts | 333° |
| 2026-04-20 17:52 | 42.75811 | -106.09519 | 36110 ft | 443 kts | 333° |
| 2026-04-20 17:53 | 42.81487 | -106.12797 | 36108 ft | 443 kts | 333° |
| 2026-04-20 17:53 | 42.87160 | -106.16075 | 36111 ft | 443 kts | 332° |
| 2026-04-20 17:54 | 42.92827 | -106.19375 | 36114 ft | 443 kts | 332° |
| 2026-04-20 17:54 | 42.98457 | -106.22661 | 36115 ft | 443 kts | 332° |
| 2026-04-20 17:55 | 43.04124 | -106.25958 | 36121 ft | 443 kts | 332° |
| 2026-04-20 17:55 | 43.09791 | -106.29259 | 36122 ft | 443 kts | 332° |
| 2026-04-20 17:56 | 43.15460 | -106.32571 | 36125 ft | 443 kts | 332° |
| 2026-04-20 17:56 | 43.21118 | -106.35899 | 36128 ft | 442 kts | 332° |
| 2026-04-20 17:57 | 43.26760 | -106.39221 | 36125 ft | 441 kts | 332° |
| 2026-04-20 17:57 | 43.32403 | -106.42548 | 36117 ft | 441 kts | 332° |
| 2026-04-20 17:58 | 43.38051 | -106.45877 | 36114 ft | 441 kts | 332° |
| 2026-04-20 17:58 | 43.43685 | -106.49208 | 36107 ft | 441 kts | 332° |
| 2026-04-20 17:59 | 43.49310 | -106.52535 | 36105 ft | 440 kts | 332° |
| 2026-04-20 17:59 | 43.54896 | -106.55846 | 36101 ft | 440 kts | 332° |
| 2026-04-20 18:00 | 43.60516 | -106.59186 | 36095 ft | 439 kts | 331° |
| 2026-04-20 18:00 | 43.66124 | -106.62539 | 36093 ft | 439 kts | 331° |
| 2026-04-20 18:01 | 43.71736 | -106.65897 | 36088 ft | 439 kts | 331° |
| 2026-04-20 18:01 | 43.77345 | -106.69257 | 36080 ft | 439 kts | 331° |
| 2026-04-20 18:02 | 43.82959 | -106.72626 | 36075 ft | 440 kts | 331° |
| 2026-04-20 18:02 | 43.88580 | -106.75992 | 36070 ft | 440 kts | 331° |
| 2026-04-20 18:03 | 43.94197 | -106.79377 | 36065 ft | 440 kts | 331° |
| 2026-04-20 18:03 | 43.99812 | -106.82775 | 36063 ft | 440 kts | 331° |
| 2026-04-20 18:04 | 44.05429 | -106.86176 | 36064 ft | 440 kts | 331° |
| 2026-04-20 18:04 | 44.11040 | -106.89581 | 36063 ft | 440 kts | 331° |
| 2026-04-20 18:05 | 44.19420 | -106.94669 | 36064 ft | 440 kts | 331° |
| 2026-04-20 18:05 | 44.25036 | -106.98075 | 36063 ft | 440 kts | 331° |
| 2026-04-20 18:06 | 44.30646 | -107.01495 | 36062 ft | 440 kts | 331° |
| 2026-04-20 18:06 | 44.36248 | -107.04934 | 36056 ft | 440 kts | 331° |
| 2026-04-20 18:07 | 44.41847 | -107.08380 | 36052 ft | 439 kts | 330° |
| 2026-04-20 18:07 | 44.47451 | -107.11819 | 36047 ft | 439 kts | 331° |
| 2026-04-20 18:08 | 44.53045 | -107.15263 | 36059 ft | 439 kts | 331° |
| 2026-04-20 18:08 | 44.58643 | -107.18716 | 35711 ft | 439 kts | 330° |
| 2026-04-20 18:09 | 44.61445 | -107.20445 | 35094 ft | 441 kts | 330° |
| 2026-04-20 18:09 | 44.64259 | -107.22183 | 34334 ft | 443 kts | 330° |
| 2026-04-20 18:09 | 44.67092 | -107.23938 | 33509 ft | 447 kts | 331° |
| 2026-04-20 18:09 | 44.69943 | -107.25707 | 32646 ft | 451 kts | 331° |
| 2026-04-20 18:10 | 44.72791 | -107.27476 | 31793 ft | 455 kts | 331° |
| 2026-04-20 18:10 | 44.75662 | -107.29467 | 30866 ft | 453 kts | 325° |
| 2026-04-20 18:10 | 44.78245 | -107.32002 | 29884 ft | 452 kts | 317° |
| 2026-04-20 18:10 | 44.80646 | -107.34785 | 28879 ft | 455 kts | 317° |
| 2026-04-20 18:11 | 44.83094 | -107.37628 | 27826 ft | 458 kts | 317° |
| 2026-04-20 18:11 | 44.85560 | -107.40494 | 26678 ft | 461 kts | 317° |
| 2026-04-20 18:11 | 44.88049 | -107.43379 | 25567 ft | 464 kts | 317° |
| 2026-04-20 18:11 | 44.90553 | -107.46276 | 24353 ft | 467 kts | 317° |
| 2026-04-20 18:12 | 44.93067 | -107.49185 | 23489 ft | 464 kts | 317° |
| 2026-04-20 18:12 | 44.95536 | -107.52038 | 22821 ft | 457 kts | 317° |
| 2026-04-20 18:12 | 44.97984 | -107.54867 | 22060 ft | 452 kts | 317° |
| 2026-04-20 18:12 | 45.00402 | -107.57673 | 21301 ft | 447 kts | 317° |
| 2026-04-20 18:13 | 45.02783 | -107.60445 | 20569 ft | 441 kts | 317° |
| 2026-04-20 18:13 | 45.05143 | -107.63194 | 19827 ft | 437 kts | 317° |
| 2026-04-20 18:13 | 45.07477 | -107.65916 | 19090 ft | 433 kts | 317° |
| 2026-04-20 18:13 | 45.09783 | -107.68606 | 18398 ft | 427 kts | 317° |
| 2026-04-20 18:14 | 45.12034 | -107.71235 | 18210 ft | 410 kts | 318° |
| 2026-04-20 18:14 | 45.14186 | -107.73750 | 18077 ft | 392 kts | 317° |
| 2026-04-20 18:14 | 45.16242 | -107.76155 | 17952 ft | 376 kts | 317° |
| 2026-04-20 18:14 | 45.18222 | -107.78476 | 17810 ft | 362 kts | 317° |
| 2026-04-20 18:15 | 45.20119 | -107.80706 | 17690 ft | 349 kts | 317° |
| 2026-04-20 18:15 | 45.21952 | -107.82868 | 17525 ft | 337 kts | 317° |
| 2026-04-20 18:15 | 45.23729 | -107.84950 | 17397 ft | 325 kts | 317° |
| 2026-04-20 18:15 | 45.25423 | -107.86922 | 17268 ft | 314 kts | 317° |
| 2026-04-20 18:16 | 45.27092 | -107.88858 | 16833 ft | 312 kts | 317° |
| 2026-04-20 18:16 | 45.28817 | -107.90853 | 15881 ft | 327 kts | 317° |
| 2026-04-20 18:16 | 45.30605 | -107.92969 | 14862 ft | 342 kts | 317° |
| 2026-04-20 18:16 | 45.32464 | -107.95186 | 13814 ft | 356 kts | 317° |
| 2026-04-20 18:17 | 45.34409 | -107.97474 | 12719 ft | 369 kts | 318° |
| 2026-04-20 18:17 | 45.36404 | -107.99798 | 12175 ft | 366 kts | 318° |
| 2026-04-20 18:17 | 45.38339 | -108.02040 | 12033 ft | 351 kts | 318° |
| 2026-04-20 18:17 | 45.40191 | -108.04189 | 11907 ft | 337 kts | 318° |
| 2026-04-20 18:18 | 45.41972 | -108.06265 | 11792 ft | 324 kts | 317° |
| 2026-04-20 18:18 | 45.43673 | -108.08258 | 11679 ft | 310 kts | 317° |
| 2026-04-20 18:18 | 45.45308 | -108.10176 | 11556 ft | 299 kts | 317° |
| 2026-04-20 18:18 | 45.46875 | -108.12020 | 11429 ft | 287 kts | 317° |
| 2026-04-20 18:19 | 45.48397 | -108.13814 | 11165 ft | 282 kts | 317° |
| 2026-04-20 18:19 | 45.49899 | -108.15593 | 10800 ft | 280 kts | 317° |
| 2026-04-20 18:19 | 45.51397 | -108.17367 | 10390 ft | 280 kts | 318° |
| 2026-04-20 18:19 | 45.52896 | -108.19142 | 9992 ft | 279 kts | 318° |
| 2026-04-20 18:20 | 45.54238 | -108.21076 | 9578 ft | 278 kts | 306° |
| 2026-04-20 18:20 | 45.55376 | -108.23290 | 9193 ft | 275 kts | 305° |
| 2026-04-20 18:20 | 45.56488 | -108.25464 | 8956 ft | 268 kts | 305° |
| 2026-04-20 18:20 | 45.57585 | -108.27600 | 8598 ft | 266 kts | 305° |
| 2026-04-20 18:21 | 45.58675 | -108.29725 | 8229 ft | 265 kts | 305° |
| 2026-04-20 18:21 | 45.59763 | -108.31842 | 7866 ft | 263 kts | 306° |
| 2026-04-20 18:21 | 45.60844 | -108.33947 | 7496 ft | 263 kts | 305° |
| 2026-04-20 18:21 | 45.61923 | -108.36049 | 7137 ft | 261 kts | 306° |
| 2026-04-20 18:22 | 45.62995 | -108.38137 | 6773 ft | 260 kts | 306° |
| 2026-04-20 18:22 | 45.64061 | -108.40223 | 6418 ft | 259 kts | 305° |
| 2026-04-20 18:22 | 45.65124 | -108.42304 | 6083 ft | 258 kts | 306° |
| 2026-04-20 18:22 | 45.66172 | -108.44356 | 5997 ft | 251 kts | 306° |
| 2026-04-20 18:23 | 45.67173 | -108.46317 | 6002 ft | 239 kts | 306° |
| 2026-04-20 18:23 | 45.68148 | -108.48222 | 6014 ft | 237 kts | 305° |
| 2026-04-20 18:23 | 45.69072 | -108.50174 | 6007 ft | 236 kts | 296° |
| 2026-04-20 18:23 | 45.69708 | -108.52333 | 6009 ft | 236 kts | 291° |
| 2026-04-20 18:24 | 45.70316 | -108.54512 | 6015 ft | 236 kts | 292° |
| 2026-04-20 18:24 | 45.70926 | -108.56693 | 6018 ft | 236 kts | 291° |
| 2026-04-20 18:24 | 45.71542 | -108.58866 | 6005 ft | 233 kts | 292° |
| 2026-04-20 18:24 | 45.72139 | -108.60935 | 5998 ft | 218 kts | 292° |
| 2026-04-20 18:25 | 45.72702 | -108.62927 | 6048 ft | 215 kts | 291° |
| 2026-04-20 18:25 | 45.73246 | -108.64908 | 6014 ft | 213 kts | 291° |
| 2026-04-20 18:25 | 45.73775 | -108.66895 | 6004 ft | 214 kts | 290° |
| 2026-04-20 18:25 | 45.74294 | -108.68883 | 6007 ft | 214 kts | 290° |
| 2026-04-20 18:26 | 45.74808 | -108.70878 | 6005 ft | 214 kts | 289° |
| 2026-04-20 18:26 | 45.74995 | -108.72975 | 6009 ft | 214 kts | 268° |
| 2026-04-20 18:26 | 45.74881 | -108.75079 | 6012 ft | 216 kts | 265° |
| 2026-04-20 18:26 | 45.74727 | -108.77243 | 6007 ft | 215 kts | 265° |
| 2026-04-20 18:27 | 45.74575 | -108.79334 | 6012 ft | 214 kts | 265° |
| 2026-04-20 18:27 | 45.74419 | -108.81460 | 6016 ft | 215 kts | 265° |
| 2026-04-20 18:27 | 45.74269 | -108.83585 | 6013 ft | 215 kts | 265° |
| 2026-04-20 18:27 | 45.74118 | -108.85709 | 6004 ft | 215 kts | 265° |
| 2026-04-20 18:28 | 45.73965 | -108.87830 | 6011 ft | 215 kts | 265° |
| 2026-04-20 18:28 | 45.73812 | -108.89956 | 6006 ft | 215 kts | 265° |
| 2026-04-20 18:28 | 45.73661 | -108.92080 | 6009 ft | 214 kts | 265° |
| 2026-04-20 18:28 | 45.73508 | -108.94201 | 6007 ft | 214 kts | 265° |
| 2026-04-20 18:29 | 45.73355 | -108.96328 | 6003 ft | 215 kts | 265° |
| 2026-04-20 18:29 | 45.73204 | -108.98459 | 6011 ft | 216 kts | 265° |
| 2026-04-20 18:29 | 45.73158 | -109.00595 | 5991 ft | 215 kts | 282° |
| 2026-04-20 18:29 | 45.73851 | -109.02453 | 5997 ft | 216 kts | 316° |
| 2026-04-20 18:30 | 45.75178 | -109.03409 | 6001 ft | 219 kts | 349° |
| 2026-04-20 18:30 | 45.76687 | -109.03161 | 6000 ft | 224 kts | 22° |
| 2026-04-20 18:30 | 45.77876 | -109.01771 | 6007 ft | 227 kts | 49° |
| 2026-04-20 18:30 | 45.78805 | -108.99890 | 6005 ft | 229 kts | 54° |
| 2026-04-20 18:31 | 45.79668 | -108.98007 | 6000 ft | 229 kts | 55° |
| 2026-04-20 18:31 | 45.80540 | -108.96093 | 5997 ft | 230 kts | 55° |
| 2026-04-20 18:31 | 45.81414 | -108.94178 | 6002 ft | 230 kts | 55° |
| 2026-04-20 18:31 | 45.82288 | -108.92258 | 5998 ft | 230 kts | 55° |
| 2026-04-20 18:32 | 45.83155 | -108.90336 | 5997 ft | 230 kts | 55° |
| 2026-04-20 18:32 | 45.84023 | -108.88413 | 6003 ft | 230 kts | 55° |
| 2026-04-20 18:32 | 45.84611 | -108.87107 | 6000 ft | 230 kts | 55° |
| 2026-04-20 18:32 | 45.85431 | -108.85173 | 5998 ft | 230 kts | 58° |
| 2026-04-20 18:33 | 45.86225 | -108.83181 | 5999 ft | 230 kts | 59° |
| 2026-04-20 18:33 | 45.86969 | -108.81224 | 5994 ft | 217 kts | 64° |
| 2026-04-20 18:33 | 45.87337 | -108.79157 | 6015 ft | 212 kts | 84° |
| 2026-04-20 18:33 | 45.87216 | -108.77095 | 5998 ft | 201 kts | 104° |
| 2026-04-20 18:34 | 45.86748 | -108.75259 | 6000 ft | 193 kts | 111° |
| 2026-04-20 18:34 | 45.86256 | -108.73478 | 6001 ft | 190 kts | 111° |
| 2026-04-20 18:34 | 45.85769 | -108.71716 | 5910 ft | 189 kts | 112° |
| 2026-04-20 18:34 | 45.85287 | -108.69974 | 5700 ft | 187 kts | 113° |
| 2026-04-20 18:35 | 45.84825 | -108.68302 | 5479 ft | 173 kts | 114° |
| 2026-04-20 18:35 | 45.84394 | -108.66737 | 5254 ft | 165 kts | 114° |
| 2026-04-20 18:35 | 45.83977 | -108.65231 | 5031 ft | 160 kts | 113° |
| 2026-04-20 18:35 | 45.83569 | -108.63759 | 4829 ft | 157 kts | 114° |
| 2026-04-20 18:36 | 45.83168 | -108.62317 | 4631 ft | 155 kts | 112° |
| 2026-04-20 18:36 | 45.82762 | -108.60881 | 4447 ft | 156 kts | 110° |
| 2026-04-20 18:36 | 45.82386 | -108.59424 | 4236 ft | 155 kts | 109° |
| 2026-04-20 18:36 | 45.81981 | -108.57999 | 4037 ft | 155 kts | 114° |
| 2026-04-20 18:37 | 45.81579 | -108.56565 | 3836 ft | 155 kts | 108° |
| 2026-04-20 18:37 | 45.81186 | -108.55131 | 3599 ft | 154 kts | 111° |
| 2026-04-20 18:37 | 45.80854 | -108.53955 | 3558 ft | 87 kts | 113° |
| 2026-04-20 18:37 | 45.80702 | -108.53440 | 3562 ft | 46 kts | 113° |
| 2026-04-20 18:38 | 45.80597 | -108.53064 | 3560 ft | 28 kts | 110° |
| 2026-04-20 18:38 | 45.80489 | -108.52890 | 3556 ft | 21 kts | 193° |
| 2026-04-20 18:38 | 45.80455 | -108.52990 | 3556 ft | 7 kts | 293° |
| 2026-04-20 18:38 | 45.80469 | -108.53050 | 3557 ft | 7 kts | 283° |
| 2026-04-20 18:39 | 45.80478 | -108.53186 | 3557 ft | 21 kts | 274° |
| 2026-04-20 18:39 | 45.80483 | -108.53410 | 3557 ft | 23 kts | 272° |
| 2026-04-20 18:39 | 45.80487 | -108.53615 | 3557 ft | 15 kts | 255° |
| 2026-04-20 18:39 | 45.80471 | -108.53633 | 3557 ft | 0 kts | 180° |